Westfield, MA

10:27 AM EDT on August 26, 2016 (GMT -0400)
Westfield | | Change Station

Elev 262 ft 42.13 °N, 72.79 °W | Updated 53 minutes ago

Scattered Clouds
Scattered Clouds
79.9 °F
Feels Like 84 °F
N
-
Wind Variable Wind from NE

Today
High -- | Low -- °F
--% Chance of Precip.
Yesterday
High -- | Low -- °F
Precip. -- in
Pressure 29.96 in
Visibility 10.0 miles
Clouds Scattered Clouds 6000 ft
Heat Index 84 °F
Dew Point 73.7 °F
Humidity 81%
Rainfall Not available.
Snow Depth Not available.
6:10 AM 7:34 PM
Waning Crescent, 34% visible
METAR KBAF 261353Z 13006KT 10SM SCT060 27/22 A2996 RMK AO2 SLP143 T02670222
Pressure 29.96 in
Visibility 10.0 miles
Clouds Scattered Clouds 6000 ft
Heat Index 84 °F
Dew Point 73.7 °F
Humidity 81%
Rainfall Not available.
Snow Depth Not available.
6:10 AM 7:34 PM
Waning Crescent, 34% visible
METAR KBAF 261353Z 13006KT 10SM SCT060 27/22 A2996 RMK AO2 SLP143 T02670222

10-Day Weather Forecast

Almanac

Astronomy

Aug. 26, 2016 Rise Set
Actual Time
Civil Twilight
Nautical Twilight
Astronomical Twilight
Moon
Length of Visible Light
Length of Day
Tomorrow will be .
, % of the Moon is Illuminated

Today's Extremes

State Highs State Lows

Community

WunderPhotos

Upload Photos

1,935,089 photos uploaded!

WunderBlog® & News

Nearby

Air Quality

  Air Quality AQ Index Pollutant
Not available.

Snow Depth

Station Depth Elevation

Earthquake Activity

City Distance Mag. Time & Date
Minimum magnitude displayed is 2.5.

Coastal Water Temperatures

Place Temperature

Stations

Nearby Weather Stations

Station Location Temp. Windchill Dew Point Humidity Wind Precip. Elev Updated Type
                   

Watches & Warnings

There are currently no watches in effect.